sensor_id;sensor_type;location;lat;lon;timestamp;P1;durP1;ratioP1;P2;durP2;ratioP2
17504;SDS011;8870;50.950;11.762;2023-02-04T00:00:30;9.48;;;2.17;;
17504;SDS011;8870;50.950;11.762;2023-02-04T00:05:57;11.63;;;2.80;;
17504;SDS011;8870;50.950;11.762;2023-02-04T00:11:28;12.07;;;2.30;;
17504;SDS011;8870;50.950;11.762;2023-02-04T00:16:49;12.25;;;2.30;;
17504;SDS011;8870;50.950;11.762;2023-02-04T00:22:20;12.82;;;2.80;;
17504;SDS011;8870;50.950;11.762;2023-02-04T00:27:40;12.77;;;2.58;;
17504;SDS011;8870;50.950;11.762;2023-02-04T00:33:14;14.93;;;2.80;;
17504;SDS011;8870;50.950;11.762;2023-02-04T00:38:32;13.07;;;2.67;;
17504;SDS011;8870;50.950;11.762;2023-02-04T00:44:03;11.80;;;2.70;;
17504;SDS011;8870;50.950;11.762;2023-02-04T00:49:24;16.13;;;3.58;;
17504;SDS011;8870;50.950;11.762;2023-02-04T00:54:56;17.73;;;3.05;;
17504;SDS011;8870;50.950;11.762;2023-02-04T01:00:15;12.70;;;2.92;;
17504;SDS011;8870;50.950;11.762;2023-02-04T01:05:50;14.55;;;2.75;;
17504;SDS011;8870;50.950;11.762;2023-02-04T01:11:08;5.07;;;1.20;;
17504;SDS011;8870;50.950;11.762;2023-02-04T01:16:40;1.05;;;0.68;;
17504;SDS011;8870;50.950;11.762;2023-02-04T01:22:02;3.58;;;1.10;;
17504;SDS011;8870;50.950;11.762;2023-02-04T01:27:33;2.63;;;1.52;;
17504;SDS011;8870;50.950;11.762;2023-02-04T01:32:51;3.50;;;1.80;;
17504;SDS011;8870;50.950;11.762;2023-02-04T01:38:25;3.38;;;2.33;;
17504;SDS011;8870;50.950;11.762;2023-02-04T01:43:43;3.08;;;1.98;;
17504;SDS011;8870;50.950;11.762;2023-02-04T01:49:15;4.43;;;2.65;;
17504;SDS011;8870;50.950;11.762;2023-02-04T01:54:37;3.63;;;2.50;;
17504;SDS011;8870;50.950;11.762;2023-02-04T02:00:09;4.63;;;2.42;;
17504;SDS011;8870;50.950;11.762;2023-02-04T02:05:32;3.58;;;2.55;;
17504;SDS011;8870;50.950;11.762;2023-02-04T02:11:11;5.43;;;2.97;;
17504;SDS011;8870;50.950;11.762;2023-02-04T02:16:29;2.80;;;1.90;;
17504;SDS011;8870;50.950;11.762;2023-02-04T02:22:01;2.00;;;1.80;;
17504;SDS011;8870;50.950;11.762;2023-02-04T02:27:26;2.90;;;1.80;;
17504;SDS011;8870;50.950;11.762;2023-02-04T02:32:57;2.50;;;2.05;;
17504;SDS011;8870;50.950;11.762;2023-02-04T02:38:17;3.92;;;2.00;;
17504;SDS011;8870;50.950;11.762;2023-02-04T02:43:52;1.73;;;1.63;;
17504;SDS011;8870;50.950;11.762;2023-02-04T02:49:11;2.28;;;1.60;;
17504;SDS011;8870;50.950;11.762;2023-02-04T02:54:46;1.27;;;1.15;;
17504;SDS011;8870;50.950;11.762;2023-02-04T03:00:11;1.98;;;1.30;;
17504;SDS011;8870;50.950;11.762;2023-02-04T03:05:46;1.77;;;1.13;;
17504;SDS011;8870;50.950;11.762;2023-02-04T03:11:06;1.40;;;1.13;;
17504;SDS011;8870;50.950;11.762;2023-02-04T03:16:41;2.80;;;1.35;;
17504;SDS011;8870;50.950;11.762;2023-02-04T03:21:59;1.60;;;1.30;;
17504;SDS011;8870;50.950;11.762;2023-02-04T03:27:31;1.60;;;1.10;;
17504;SDS011;8870;50.950;11.762;2023-02-04T03:32:52;2.35;;;1.40;;
17504;SDS011;8870;50.950;11.762;2023-02-04T03:38:23;2.53;;;1.20;;
17504;SDS011;8870;50.950;11.762;2023-02-04T03:43:41;1.83;;;1.13;;
17504;SDS011;8870;50.950;11.762;2023-02-04T03:49:15;1.20;;;1.10;;
17504;SDS011;8870;50.950;11.762;2023-02-04T03:54:33;3.72;;;1.35;;
17504;SDS011;8870;50.950;11.762;2023-02-04T04:00:05;2.35;;;1.35;;
17504;SDS011;8870;50.950;11.762;2023-02-04T04:05:26;3.08;;;1.40;;
17504;SDS011;8870;50.950;11.762;2023-02-04T04:10:57;2.75;;;1.70;;
17504;SDS011;8870;50.950;11.762;2023-02-04T04:16:15;1.60;;;1.50;;
17504;SDS011;8870;50.950;11.762;2023-02-04T04:21:49;4.28;;;1.60;;
17504;SDS011;8870;50.950;11.762;2023-02-04T04:27:07;3.38;;;1.58;;
17504;SDS011;8870;50.950;11.762;2023-02-04T04:32:38;2.42;;;1.70;;
17504;SDS011;8870;50.950;11.762;2023-02-04T04:37:59;3.60;;;1.90;;
17504;SDS011;8870;50.950;11.762;2023-02-04T04:43:30;2.38;;;1.58;;
17504;SDS011;8870;50.950;11.762;2023-02-04T04:48:48;2.80;;;1.95;;
17504;SDS011;8870;50.950;11.762;2023-02-04T04:54:22;2.15;;;1.70;;
17504;SDS011;8870;50.950;11.762;2023-02-04T04:59:40;3.15;;;1.83;;
17504;SDS011;8870;50.950;11.762;2023-02-04T05:05:12;2.88;;;1.77;;
17504;SDS011;8870;50.950;11.762;2023-02-04T05:10:33;3.25;;;1.60;;
17504;SDS011;8870;50.950;11.762;2023-02-04T05:16:04;3.60;;;2.03;;
17504;SDS011;8870;50.950;11.762;2023-02-04T05:21:25;2.08;;;1.80;;
17504;SDS011;8870;50.950;11.762;2023-02-04T05:26:59;2.22;;;1.80;;
17504;SDS011;8870;50.950;11.762;2023-02-04T05:32:17;2.17;;;1.88;;
17504;SDS011;8870;50.950;11.762;2023-02-04T05:37:48;3.10;;;1.85;;
17504;SDS011;8870;50.950;11.762;2023-02-04T05:43:09;3.30;;;2.08;;
17504;SDS011;8870;50.950;11.762;2023-02-04T05:48:40;3.08;;;2.05;;
17504;SDS011;8870;50.950;11.762;2023-02-04T05:53:58;2.28;;;1.65;;
17504;SDS011;8870;50.950;11.762;2023-02-04T05:59:33;4.07;;;1.65;;
17504;SDS011;8870;50.950;11.762;2023-02-04T06:04:51;1.75;;;1.48;;
17504;SDS011;8870;50.950;11.762;2023-02-04T06:10:22;2.97;;;1.70;;
17504;SDS011;8870;50.950;11.762;2023-02-04T06:15:43;3.13;;;1.80;;
17504;SDS011;8870;50.950;11.762;2023-02-04T06:21:14;2.58;;;1.67;;
17504;SDS011;8870;50.950;11.762;2023-02-04T06:26:32;2.20;;;1.60;;
17504;SDS011;8870;50.950;11.762;2023-02-04T06:32:06;2.35;;;1.88;;
17504;SDS011;8870;50.950;11.762;2023-02-04T06:37:24;4.88;;;2.08;;
17504;SDS011;8870;50.950;11.762;2023-02-04T06:42:55;4.05;;;2.10;;
17504;SDS011;8870;50.950;11.762;2023-02-04T06:48:16;3.55;;;2.50;;
17504;SDS011;8870;50.950;11.762;2023-02-04T06:53:47;2.72;;;2.45;;
17504;SDS011;8870;50.950;11.762;2023-02-04T06:59:06;2.97;;;2.20;;
17504;SDS011;8870;50.950;11.762;2023-02-04T07:04:40;2.65;;;2.30;;
17504;SDS011;8870;50.950;11.762;2023-02-04T07:10:05;3.10;;;2.28;;
17504;SDS011;8870;50.950;11.762;2023-02-04T07:15:37;3.63;;;2.20;;
17504;SDS011;8870;50.950;11.762;2023-02-04T07:20:58;2.97;;;2.03;;
17504;SDS011;8870;50.950;11.762;2023-02-04T07:26:29;3.35;;;1.70;;
17504;SDS011;8870;50.950;11.762;2023-02-04T07:31:47;2.50;;;1.65;;
17504;SDS011;8870;50.950;11.762;2023-02-04T07:37:21;3.55;;;2.40;;
17504;SDS011;8870;50.950;11.762;2023-02-04T07:42:39;3.45;;;3.15;;
17504;SDS011;8870;50.950;11.762;2023-02-04T07:48:12;5.47;;;2.78;;
17504;SDS011;8870;50.950;11.762;2023-02-04T07:53:33;4.25;;;2.70;;
17504;SDS011;8870;50.950;11.762;2023-02-04T07:59:04;3.95;;;2.00;;
17504;SDS011;8870;50.950;11.762;2023-02-04T08:04:22;3.88;;;2.10;;
17504;SDS011;8870;50.950;11.762;2023-02-04T08:09:56;3.20;;;2.20;;
17504;SDS011;8870;50.950;11.762;2023-02-04T08:15:27;5.03;;;2.20;;
17504;SDS011;8870;50.950;11.762;2023-02-04T08:20:45;4.57;;;2.60;;
17504;SDS011;8870;50.950;11.762;2023-02-04T08:26:19;3.85;;;2.10;;
17504;SDS011;8870;50.950;11.762;2023-02-04T08:31:37;3.78;;;1.95;;
17504;SDS011;8870;50.950;11.762;2023-02-04T08:37:10;3.10;;;1.70;;
17504;SDS011;8870;50.950;11.762;2023-02-04T08:42:31;3.25;;;1.67;;
17504;SDS011;8870;50.950;11.762;2023-02-04T08:48:02;1.77;;;1.15;;
17504;SDS011;8870;50.950;11.762;2023-02-04T08:53:21;2.92;;;1.23;;
17504;SDS011;8870;50.950;11.762;2023-02-04T08:58:55;3.90;;;1.30;;
17504;SDS011;8870;50.950;11.762;2023-02-04T09:04:13;1.92;;;1.20;;
17504;SDS011;8870;50.950;11.762;2023-02-04T09:09:45;1.83;;;0.98;;
17504;SDS011;8870;50.950;11.762;2023-02-04T09:15:19;2.30;;;1.30;;
17504;SDS011;8870;50.950;11.762;2023-02-04T09:20:37;1.63;;;1.10;;
17504;SDS011;8870;50.950;11.762;2023-02-04T09:26:08;2.03;;;1.10;;
17504;SDS011;8870;50.950;11.762;2023-02-04T09:31:29;2.70;;;0.80;;
17504;SDS011;8870;50.950;11.762;2023-02-04T09:37:02;3.05;;;0.90;;
17504;SDS011;8870;50.950;11.762;2023-02-04T09:42:20;2.53;;;1.00;;
17504;SDS011;8870;50.950;11.762;2023-02-04T09:47:57;2.08;;;0.90;;
17504;SDS011;8870;50.950;11.762;2023-02-04T09:53:20;3.58;;;1.10;;
17504;SDS011;8870;50.950;11.762;2023-02-04T09:58:46;2.47;;;1.13;;
17504;SDS011;8870;50.950;11.762;2023-02-04T10:04:14;1.50;;;0.98;;
17504;SDS011;8870;50.950;11.762;2023-02-04T10:09:39;3.42;;;0.90;;
17504;SDS011;8870;50.950;11.762;2023-02-04T10:15:11;1.80;;;0.70;;
17504;SDS011;8870;50.950;11.762;2023-02-04T10:20:35;1.80;;;0.95;;
17504;SDS011;8870;50.950;11.762;2023-02-04T10:26:08;2.67;;;0.98;;
17504;SDS011;8870;50.950;11.762;2023-02-04T10:31:32;1.80;;;0.90;;
17504;SDS011;8870;50.950;11.762;2023-02-04T10:37:16;1.75;;;0.90;;
17504;SDS011;8870;50.950;11.762;2023-02-04T10:42:36;3.15;;;0.82;;
17504;SDS011;8870;50.950;11.762;2023-02-04T10:48:21;2.90;;;0.80;;
17504;SDS011;8870;50.950;11.762;2023-02-04T10:53:43;2.33;;;1.10;;
17504;SDS011;8870;50.950;11.762;2023-02-04T10:59:27;1.38;;;0.98;;
17504;SDS011;8870;50.950;11.762;2023-02-04T11:04:46;2.35;;;1.10;;
17504;SDS011;8870;50.950;11.762;2023-02-04T11:10:22;1.52;;;1.10;;
17504;SDS011;8870;50.950;11.762;2023-02-04T11:16:11;1.90;;;1.00;;
17504;SDS011;8870;50.950;11.762;2023-02-04T11:21:42;2.00;;;1.20;;
17504;SDS011;8870;50.950;11.762;2023-02-04T11:27:21;1.88;;;0.93;;
17504;SDS011;8870;50.950;11.762;2023-02-04T11:32:55;2.10;;;1.05;;
17504;SDS011;8870;50.950;11.762;2023-02-04T11:38:22;1.07;;;0.63;;
17504;SDS011;8870;50.950;11.762;2023-02-04T11:43:58;0.95;;;0.70;;
17504;SDS011;8870;50.950;11.762;2023-02-04T11:49:17;1.50;;;0.77;;
17504;SDS011;8870;50.950;11.762;2023-02-04T11:54:53;2.65;;;0.70;;
17504;SDS011;8870;50.950;11.762;2023-02-04T12:00:16;1.90;;;0.93;;
17504;SDS011;8870;50.950;11.762;2023-02-04T12:05:48;1.95;;;0.75;;
17504;SDS011;8870;50.950;11.762;2023-02-04T12:11:09;0.95;;;0.70;;
17504;SDS011;8870;50.950;11.762;2023-02-04T12:16:46;4.00;;;1.02;;
17504;SDS011;8870;50.950;11.762;2023-02-04T12:22:06;1.80;;;0.70;;
17504;SDS011;8870;50.950;11.762;2023-02-04T12:27:38;1.15;;;0.70;;
17504;SDS011;8870;50.950;11.762;2023-02-04T12:32:59;2.15;;;0.70;;
17504;SDS011;8870;50.950;11.762;2023-02-04T12:38:30;1.52;;;0.80;;
17504;SDS011;8870;50.950;11.762;2023-02-04T12:43:48;2.15;;;0.70;;
17504;SDS011;8870;50.950;11.762;2023-02-04T12:49:24;1.80;;;0.80;;
17504;SDS011;8870;50.950;11.762;2023-02-04T12:54:42;1.10;;;0.70;;
17504;SDS011;8870;50.950;11.762;2023-02-04T13:00:14;0.90;;;0.70;;
17504;SDS011;8870;50.950;11.762;2023-02-04T13:05:36;1.38;;;0.57;;
17504;SDS011;8870;50.950;11.762;2023-02-04T13:11:07;1.10;;;0.50;;
17504;SDS011;8870;50.950;11.762;2023-02-04T13:16:25;0.77;;;0.50;;
17504;SDS011;8870;50.950;11.762;2023-02-04T13:21:59;1.10;;;0.55;;
17504;SDS011;8870;50.950;11.762;2023-02-04T13:27:17;0.60;;;0.43;;
17504;SDS011;8870;50.950;11.762;2023-02-04T13:32:48;1.50;;;0.40;;
17504;SDS011;8870;50.950;11.762;2023-02-04T13:38:09;0.90;;;0.40;;
17504;SDS011;8870;50.950;11.762;2023-02-04T13:43:40;1.38;;;0.70;;
17504;SDS011;8870;50.950;11.762;2023-02-04T13:48:59;2.03;;;0.90;;
17504;SDS011;8870;50.950;11.762;2023-02-04T13:54:33;0.80;;;0.40;;
17504;SDS011;8870;50.950;11.762;2023-02-04T13:59:52;1.13;;;0.55;;
17504;SDS011;8870;50.950;11.762;2023-02-04T14:05:25;1.58;;;0.60;;
17504;SDS011;8870;50.950;11.762;2023-02-04T14:10:53;2.38;;;0.73;;
17504;SDS011;8870;50.950;11.762;2023-02-04T14:16:25;1.15;;;0.57;;
17504;SDS011;8870;50.950;11.762;2023-02-04T14:21:45;1.13;;;0.70;;
17504;SDS011;8870;50.950;11.762;2023-02-04T14:27:18;1.48;;;0.70;;
17504;SDS011;8870;50.950;11.762;2023-02-04T14:32:36;1.77;;;0.70;;
17504;SDS011;8870;50.950;11.762;2023-02-04T14:38:07;1.05;;;0.70;;
17504;SDS011;8870;50.950;11.762;2023-02-04T14:43:32;1.80;;;0.60;;
17504;SDS011;8870;50.950;11.762;2023-02-04T14:49:03;2.50;;;0.70;;
17504;SDS011;8870;50.950;11.762;2023-02-04T14:54:22;1.13;;;0.70;;
17504;SDS011;8870;50.950;11.762;2023-02-04T14:59:56;2.35;;;0.60;;
17504;SDS011;8870;50.950;11.762;2023-02-04T15:05:15;1.52;;;0.73;;
17504;SDS011;8870;50.950;11.762;2023-02-04T15:10:46;2.35;;;0.68;;
17504;SDS011;8870;50.950;11.762;2023-02-04T15:16:20;2.27;;;0.80;;
17504;SDS011;8870;50.950;11.762;2023-02-04T15:21:39;0.80;;;0.60;;
17504;SDS011;8870;50.950;11.762;2023-02-04T15:27:09;1.65;;;0.73;;
17504;SDS011;8870;50.950;11.762;2023-02-04T15:32:30;0.93;;;0.57;;
17504;SDS011;8870;50.950;11.762;2023-02-04T15:38:03;1.48;;;0.73;;
17504;SDS011;8870;50.950;11.762;2023-02-04T15:43:22;3.60;;;1.13;;
17504;SDS011;8870;50.950;11.762;2023-02-04T15:48:55;1.50;;;0.75;;
17504;SDS011;8870;50.950;11.762;2023-02-04T15:54:14;3.25;;;0.90;;
17504;SDS011;8870;50.950;11.762;2023-02-04T15:59:44;3.30;;;0.82;;
17504;SDS011;8870;50.950;11.762;2023-02-04T16:05:07;1.98;;;0.80;;
17504;SDS011;8870;50.950;11.762;2023-02-04T16:10:38;1.10;;;0.70;;
17504;SDS011;8870;50.950;11.762;2023-02-04T16:16:09;1.30;;;0.60;;
17504;SDS011;8870;50.950;11.762;2023-02-04T16:21:30;1.55;;;0.75;;
17504;SDS011;8870;50.950;11.762;2023-02-04T16:27:01;2.53;;;0.90;;
17504;SDS011;8870;50.950;11.762;2023-02-04T16:32:20;2.45;;;0.85;;
17504;SDS011;8870;50.950;11.762;2023-02-04T16:37:56;1.17;;;0.90;;
17504;SDS011;8870;50.950;11.762;2023-02-04T16:43:15;1.67;;;0.80;;
17504;SDS011;8870;50.950;11.762;2023-02-04T16:48:45;1.35;;;0.70;;
17504;SDS011;8870;50.950;11.762;2023-02-04T16:54:06;3.45;;;1.08;;
17504;SDS011;8870;50.950;11.762;2023-02-04T16:59:37;0.77;;;0.60;;
17504;SDS011;8870;50.950;11.762;2023-02-04T17:05:03;2.58;;;0.93;;
17504;SDS011;8870;50.950;11.762;2023-02-04T17:10:37;4.88;;;2.25;;
17504;SDS011;8870;50.950;11.762;2023-02-04T17:16:21;4.68;;;2.80;;
17504;SDS011;8870;50.950;11.762;2023-02-04T17:21:40;2.90;;;1.98;;
17504;SDS011;8870;50.950;11.762;2023-02-04T17:27:14;5.20;;;2.30;;
17504;SDS011;8870;50.950;11.762;2023-02-04T17:32:33;2.58;;;1.80;;
17504;SDS011;8870;50.950;11.762;2023-02-04T17:38:03;2.85;;;1.40;;
17504;SDS011;8870;50.950;11.762;2023-02-04T17:43:24;2.33;;;1.65;;
17504;SDS011;8870;50.950;11.762;2023-02-04T17:48:57;3.17;;;2.00;;
17504;SDS011;8870;50.950;11.762;2023-02-04T17:54:16;2.67;;;1.58;;
17504;SDS011;8870;50.950;11.762;2023-02-04T17:59:50;3.03;;;1.83;;
17504;SDS011;8870;50.950;11.762;2023-02-04T18:05:12;2.13;;;1.67;;
17504;SDS011;8870;50.950;11.762;2023-02-04T18:10:45;2.50;;;1.75;;
17504;SDS011;8870;50.950;11.762;2023-02-04T18:16:21;3.20;;;1.95;;
17504;SDS011;8870;50.950;11.762;2023-02-04T18:21:42;3.90;;;1.70;;
17504;SDS011;8870;50.950;11.762;2023-02-04T18:27:15;3.25;;;1.73;;
17504;SDS011;8870;50.950;11.762;2023-02-04T18:32:38;3.15;;;2.05;;
17504;SDS011;8870;50.950;11.762;2023-02-04T18:38:19;3.60;;;1.80;;
17504;SDS011;8870;50.950;11.762;2023-02-04T18:43:39;2.83;;;1.70;;
17504;SDS011;8870;50.950;11.762;2023-02-04T18:49:18;3.28;;;1.88;;
17504;SDS011;8870;50.950;11.762;2023-02-04T18:54:41;3.67;;;1.67;;
17504;SDS011;8870;50.950;11.762;2023-02-04T19:00:21;2.30;;;1.40;;
17504;SDS011;8870;50.950;11.762;2023-02-04T19:05:46;3.83;;;1.95;;
17504;SDS011;8870;50.950;11.762;2023-02-04T19:11:21;4.13;;;2.22;;
17504;SDS011;8870;50.950;11.762;2023-02-04T19:17:07;4.20;;;2.35;;
17504;SDS011;8870;50.950;11.762;2023-02-04T19:22:42;4.28;;;1.80;;
17504;SDS011;8870;50.950;11.762;2023-02-04T19:28:25;2.97;;;2.20;;
17504;SDS011;8870;50.950;11.762;2023-02-04T19:33:45;3.28;;;1.98;;
17504;SDS011;8870;50.950;11.762;2023-02-04T19:39:28;4.32;;;1.65;;
17504;SDS011;8870;50.950;11.762;2023-02-04T19:44:52;6.13;;;2.60;;
17504;SDS011;8870;50.950;11.762;2023-02-04T19:50:25;5.53;;;3.10;;
17504;SDS011;8870;50.950;11.762;2023-02-04T19:55:48;5.03;;;2.90;;
17504;SDS011;8870;50.950;11.762;2023-02-04T20:01:20;4.70;;;3.10;;
17504;SDS011;8870;50.950;11.762;2023-02-04T20:06:39;5.03;;;2.60;;
17504;SDS011;8870;50.950;11.762;2023-02-04T20:12:16;6.88;;;2.45;;
17504;SDS011;8870;50.950;11.762;2023-02-04T20:17:36;4.38;;;2.50;;
17504;SDS011;8870;50.950;11.762;2023-02-04T20:23:13;3.03;;;2.05;;
17504;SDS011;8870;50.950;11.762;2023-02-04T20:28:40;2.75;;;1.88;;
17504;SDS011;8870;50.950;11.762;2023-02-04T20:34:14;2.95;;;2.03;;
17504;SDS011;8870;50.950;11.762;2023-02-04T20:39:37;2.83;;;2.17;;
17504;SDS011;8870;50.950;11.762;2023-02-04T20:50:50;2.47;;;1.90;;
17504;SDS011;8870;50.950;11.762;2023-02-04T20:56:25;4.15;;;2.28;;
17504;SDS011;8870;50.950;11.762;2023-02-04T21:01:48;3.58;;;2.40;;
17504;SDS011;8870;50.950;11.762;2023-02-04T21:07:20;4.75;;;2.17;;
17504;SDS011;8870;50.950;11.762;2023-02-04T21:12:39;5.03;;;2.90;;
17504;SDS011;8870;50.950;11.762;2023-02-04T21:18:12;5.28;;;2.72;;
17504;SDS011;8870;50.950;11.762;2023-02-04T21:23:31;6.82;;;3.65;;
17504;SDS011;8870;50.950;11.762;2023-02-04T21:29:02;5.15;;;3.30;;
17504;SDS011;8870;50.950;11.762;2023-02-04T21:34:22;3.60;;;2.95;;
17504;SDS011;8870;50.950;11.762;2023-02-04T21:39:54;4.43;;;3.30;;
17504;SDS011;8870;50.950;11.762;2023-02-04T21:45:12;6.13;;;4.13;;
17504;SDS011;8870;50.950;11.762;2023-02-04T21:50:46;5.00;;;3.67;;
17504;SDS011;8870;50.950;11.762;2023-02-04T21:56:05;4.50;;;3.45;;
17504;SDS011;8870;50.950;11.762;2023-02-04T22:01:38;4.97;;;2.92;;
17504;SDS011;8870;50.950;11.762;2023-02-04T22:06:58;4.25;;;3.28;;
17504;SDS011;8870;50.950;11.762;2023-02-04T22:12:31;4.65;;;3.95;;
17504;SDS011;8870;50.950;11.762;2023-02-04T22:18:02;5.22;;;3.20;;
17504;SDS011;8870;50.950;11.762;2023-02-04T22:23:22;4.57;;;3.38;;
17504;SDS011;8870;50.950;11.762;2023-02-04T22:28:54;4.32;;;2.97;;
17504;SDS011;8870;50.950;11.762;2023-02-04T22:34:12;4.90;;;2.90;;
17504;SDS011;8870;50.950;11.762;2023-02-04T22:39:45;3.80;;;2.50;;
17504;SDS011;8870;50.950;11.762;2023-02-04T22:45:04;4.43;;;2.55;;
17504;SDS011;8870;50.950;11.762;2023-02-04T22:50:36;4.28;;;2.90;;
17504;SDS011;8870;50.950;11.762;2023-02-04T22:55:56;3.05;;;2.72;;
17504;SDS011;8870;50.950;11.762;2023-02-04T23:01:28;3.67;;;2.70;;
17504;SDS011;8870;50.950;11.762;2023-02-04T23:06:46;5.28;;;3.05;;
17504;SDS011;8870;50.950;11.762;2023-02-04T23:12:19;5.07;;;3.00;;
17504;SDS011;8870;50.950;11.762;2023-02-04T23:17:38;3.58;;;2.78;;
17504;SDS011;8870;50.950;11.762;2023-02-04T23:23:09;3.13;;;2.60;;
17504;SDS011;8870;50.950;11.762;2023-02-04T23:28:33;4.75;;;2.80;;
17504;SDS011;8870;50.950;11.762;2023-02-04T23:34:05;4.00;;;2.60;;
17504;SDS011;8870;50.950;11.762;2023-02-04T23:39:23;3.97;;;2.53;;
17504;SDS011;8870;50.950;11.762;2023-02-04T23:44:59;3.40;;;2.65;;
17504;SDS011;8870;50.950;11.762;2023-02-04T23:50:18;3.33;;;2.50;;
17504;SDS011;8870;50.950;11.762;2023-02-04T23:55:50;4.15;;;2.55;;
